Time;durP1;ratioP1;P1;durP2;ratioP2;P2;SDS_P1;SDS_P2;PMS_P1;PMS_P2;Temp;Humidity;BMP_temperature;BMP_pressure;BME280_temperature;BME280_humidity;BME280_pressure;Samples;Min_cycle;Max_cycle;Signal;HPM_P1;HPM_P2
2023/11/26 00:02:20;;;;;;;2.60;2.40;;;2.20;99.90;;;;;;5037614;28;20207;-60
2023/11/26 00:04:48;;;;;;;3.28;2.95;;;2.20;99.90;;;;;;5033993;28;20230;-61
2023/11/26 00:07:15;;;;;;;2.50;2.30;;;2.30;99.90;;;;;;5030865;28;20213;-61
2023/11/26 00:09:42;;;;;;;5.35;2.65;;;2.30;99.90;;;;;;5043952;28;20322;-59
2023/11/26 00:12:08;;;;;;;3.13;2.85;;;2.40;99.90;;;;;;5048227;28;20297;-61
2023/11/26 00:14:38;;;;;;;4.15;2.50;;;2.40;99.90;;;;;;5043470;28;20202;-61
2023/11/26 00:17:06;;;;;;;3.53;3.35;;;2.40;99.90;;;;;;5040899;28;20211;-61
2023/11/26 00:19:34;;;;;;;4.78;2.45;;;2.40;99.90;;;;;;5039528;28;20230;-60
2023/11/26 00:22:02;;;;;;;2.60;2.40;;;2.50;99.90;;;;;;5040085;28;20269;-60
2023/11/26 00:24:29;;;;;;;3.25;2.92;;;2.50;99.90;;;;;;5042301;28;20229;-59
2023/11/26 00:26:55;;;;;;;4.40;3.10;;;2.50;99.90;;;;;;5041924;28;20217;-60
2023/11/26 00:29:22;;;;;;;4.20;2.20;;;2.60;99.90;;;;;;5035754;28;20225;-60
2023/11/26 00:31:50;;;;;;;3.40;3.10;;;2.60;99.90;;;;;;5045281;28;20294;-61
2023/11/26 00:34:17;;;;;;;3.45;3.15;;;2.70;99.90;;;;;;5040472;28;20257;-60
2023/11/26 00:36:44;;;;;;;3.50;3.13;;;2.70;99.90;;;;;;5040587;28;20230;-60
2023/11/26 00:39:12;;;;;;;5.38;2.92;;;2.70;99.90;;;;;;5033649;28;20678;-60
2023/11/26 00:41:40;;;;;;;3.50;2.83;;;2.80;99.90;;;;;;5046989;28;20306;-60
2023/11/26 00:44:07;;;;;;;4.00;2.53;;;2.80;99.90;;;;;;5033586;28;20281;-61
2023/11/26 00:46:34;;;;;;;3.85;3.28;;;2.90;99.90;;;;;;5045062;28;20213;-60
2023/11/26 00:49:05;;;;;;;6.40;3.22;;;2.90;99.90;;;;;;5040824;28;20287;-61
2023/11/26 00:51:32;;;;;;;5.20;2.97;;;2.90;99.90;;;;;;5039339;28;20207;-60
2023/11/26 00:53:59;;;;;;;3.88;2.50;;;3.00;99.90;;;;;;5039168;28;20207;-60
2023/11/26 00:56:27;;;;;;;2.28;2.08;;;3.00;99.90;;;;;;5041087;28;20223;-61
2023/11/26 00:58:54;;;;;;;2.70;2.50;;;3.00;99.90;;;;;;5041331;28;20236;-61
2023/11/26 01:01:21;;;;;;;3.10;2.50;;;3.00;99.90;;;;;;5038859;28;20207;-60
2023/11/26 01:03:48;;;;;;;3.40;3.08;;;3.00;99.90;;;;;;5038794;28;20222;-60
2023/11/26 01:06:14;;;;;;;4.38;2.70;;;3.00;99.90;;;;;;5039273;28;20214;-59
2023/11/26 01:08:41;;;;;;;3.00;2.75;;;3.00;99.90;;;;;;5039231;28;20605;-61
2023/11/26 01:11:13;;;;;;;3.95;3.70;;;3.10;99.90;;;;;;5033441;28;20215;-60
2023/11/26 01:13:41;;;;;;;4.05;3.65;;;3.00;99.90;;;;;;5035356;28;20213;-60
2023/11/26 01:16:09;;;;;;;7.78;3.42;;;3.00;99.90;;;;;;5042204;28;20268;-60
2023/11/26 01:18:38;;;;;;;5.90;4.10;;;2.90;99.90;;;;;;5032841;28;20620;-59
2023/11/26 01:21:06;;;;;;;5.20;3.30;;;2.90;99.90;;;;;;5033664;28;20209;-60
2023/11/26 01:23:33;;;;;;;3.55;3.25;;;2.90;99.90;;;;;;5039892;28;20309;-56
2023/11/26 01:26:00;;;;;;;4.70;3.63;;;2.90;99.90;;;;;;5038212;28;20208;-60
2023/11/26 01:28:27;;;;;;;3.88;3.15;;;2.90;99.90;;;;;;5040308;28;20230;-60
2023/11/26 01:30:55;;;;;;;3.50;3.10;;;2.90;99.90;;;;;;5041310;28;20293;-60
2023/11/26 01:33:23;;;;;;;3.50;3.20;;;2.90;99.90;;;;;;5038103;28;20661;-60
2023/11/26 01:35:50;;;;;;;5.05;4.00;;;2.80;99.90;;;;;;5038174;28;20681;-60
2023/11/26 01:38:16;;;;;;;5.57;3.28;;;2.80;99.90;;;;;;5038645;28;20299;-60
2023/11/26 01:40:43;;;;;;;4.80;2.78;;;2.70;99.90;;;;;;5041877;28;20325;-59
2023/11/26 01:43:10;;;;;;;4.32;3.53;;;2.70;99.90;;;;;;5033406;28;20657;-60
2023/11/26 01:45:37;;;;;;;3.22;3.03;;;2.70;99.90;;;;;;5044465;28;20304;-61
2023/11/26 01:48:05;;;;;;;6.47;3.30;;;2.60;99.90;;;;;;5042084;28;20213;-61
2023/11/26 01:50:33;;;;;;;6.65;3.80;;;2.60;99.90;;;;;;5040912;28;20222;-61
2023/11/26 01:53:00;;;;;;;4.00;2.45;;;2.60;99.90;;;;;;5034645;28;20230;-60
2023/11/26 01:55:27;;;;;;;2.85;2.65;;;2.50;99.90;;;;;;5032952;28;20203;-62
2023/11/26 01:57:54;;;;;;;4.90;2.85;;;2.50;99.90;;;;;;5033159;28;20566;-62
2023/11/26 02:00:22;;;;;;;4.40;2.97;;;2.40;99.90;;;;;;5033083;28;20316;-61
2023/11/26 02:02:49;;;;;;;4.05;3.25;;;2.40;99.90;;;;;;5032999;28;20648;-61
2023/11/26 02:05:18;;;;;;;6.00;3.33;;;2.40;99.90;;;;;;5032874;28;20797;-61
2023/11/26 02:07:46;;;;;;;4.00;3.10;;;2.40;99.90;;;;;;5032659;28;20210;-61
2023/11/26 02:10:13;;;;;;;6.07;3.00;;;2.30;99.90;;;;;;5032715;28;20254;-62
2023/11/26 02:12:40;;;;;;;3.90;3.30;;;2.30;99.90;;;;;;5033015;28;20211;-61
2023/11/26 02:15:09;;;;;;;2.78;2.60;;;2.30;99.90;;;;;;5032941;28;20290;-61
2023/11/26 02:17:36;;;;;;;5.13;4.70;;;2.30;99.90;;;;;;5032418;28;20243;-61
2023/11/26 02:20:04;;;;;;;2.80;2.60;;;2.30;99.90;;;;;;5032665;28;20313;-62
2023/11/26 02:22:32;;;;;;;3.55;3.20;;;2.20;99.90;;;;;;5032929;28;20293;-62
2023/11/26 02:25:01;;;;;;;7.03;3.92;;;2.20;99.90;;;;;;5032634;28;20317;-62
2023/11/26 02:27:27;;;;;;;3.50;3.20;;;2.20;99.90;;;;;;5032319;28;20218;-62
2023/11/26 02:29:54;;;;;;;7.32;3.03;;;2.20;99.90;;;;;;5032543;28;20237;-61
2023/11/26 02:32:21;;;;;;;5.38;4.13;;;2.10;99.90;;;;;;5031853;28;20695;-61
2023/11/26 02:34:48;;;;;;;3.75;2.55;;;2.10;99.90;;;;;;5032339;28;20298;-62
2023/11/26 02:37:15;;;;;;;3.78;3.47;;;2.00;99.90;;;;;;5031249;28;20289;-61
2023/11/26 02:39:41;;;;;;;12.82;2.90;;;2.00;99.90;;;;;;5032065;28;20808;-61
2023/11/26 02:42:11;;;;;;;2.63;1.98;;;2.00;99.90;;;;;;5032292;28;20207;-61
2023/11/26 02:44:39;;;;;;;2.65;2.25;;;2.00;99.90;;;;;;5032241;28;20688;-61
2023/11/26 02:47:07;;;;;;;3.55;2.85;;;1.90;99.90;;;;;;5031920;28;20294;-61
2023/11/26 02:49:34;;;;;;;5.00;3.50;;;1.80;99.90;;;;;;5031962;28;20235;-61
2023/11/26 02:52:01;;;;;;;2.95;2.47;;;1.70;99.90;;;;;;5032265;28;20663;-61
2023/11/26 02:54:28;;;;;;;3.60;2.15;;;1.70;99.90;;;;;;5032176;28;20298;-62
2023/11/26 02:56:55;;;;;;;2.22;1.90;;;1.60;99.90;;;;;;5031862;28;20293;-61
2023/11/26 02:59:23;;;;;;;2.00;1.90;;;1.50;99.90;;;;;;5031717;28;20227;-61
2023/11/26 03:01:50;;;;;;;2.70;1.80;;;1.40;99.90;;;;;;5030796;28;20298;-60
2023/11/26 03:04:21;;;;;;;4.40;2.38;;;1.30;99.90;;;;;;5031354;28;20237;-61
2023/11/26 03:06:48;;;;;;;2.28;2.13;;;1.30;99.90;;;;;;5031792;28;20207;-61
2023/11/26 03:09:37;;;;;;;2.60;2.40;;;1.20;99.90;;;;;;5031593;28;20238;-61
2023/11/26 03:14:53;;;;;;;4.55;2.20;;;1.00;99.90;;;;;;5031761;28;20696;-60
2023/11/26 03:17:20;;;;;;;2.22;2.00;;;1.00;99.90;;;;;;5031594;28;20677;-61
2023/11/26 03:19:47;;;;;;;2.72;2.30;;;0.90;99.90;;;;;;5031823;28;20253;-60
2023/11/26 03:22:15;;;;;;;3.35;3.03;;;0.80;99.90;;;;;;5031745;28;20211;-61
2023/11/26 03:24:42;;;;;;;4.18;2.67;;;0.80;99.90;;;;;;5031423;28;20238;-61
2023/11/26 03:27:12;;;;;;;3.90;3.20;;;0.70;99.90;;;;;;5031520;28;20274;-60
2023/11/26 03:29:40;;;;;;;2.28;2.08;;;0.70;99.90;;;;;;5031642;28;20280;-59
2023/11/26 03:32:08;;;;;;;3.47;2.63;;;0.70;99.90;;;;;;5031677;28;20672;-61
2023/11/26 03:34:35;;;;;;;3.75;2.25;;;0.60;99.90;;;;;;5031474;28;20217;-61
2023/11/26 03:37:02;;;;;;;2.85;2.63;;;0.60;99.90;;;;;;5031071;28;20643;-60
2023/11/26 03:39:30;;;;;;;4.65;4.25;;;0.60;99.90;;;;;;5031129;28;20321;-62
2023/11/26 03:41:57;;;;;;;1.70;1.55;;;0.50;99.90;;;;;;5031567;28;20207;-60
2023/11/26 03:44:24;;;;;;;2.38;2.22;;;0.50;99.90;;;;;;5030231;28;20289;-60
2023/11/26 03:46:51;;;;;;;4.20;3.00;;;0.50;99.90;;;;;;5030878;28;20211;-59
2023/11/26 03:49:19;;;;;;;2.60;2.40;;;0.50;99.90;;;;;;5030979;28;20241;-62
2023/11/26 03:51:46;;;;;;;2.30;2.20;;;0.40;99.90;;;;;;5031034;28;20211;-61
2023/11/26 03:54:13;;;;;;;2.85;2.30;;;0.40;99.90;;;;;;5031123;28;20754;-62
2023/11/26 03:56:39;;;;;;;2.75;2.53;;;0.40;99.90;;;;;;5030927;28;20593;-60
2023/11/26 03:59:06;;;;;;;6.05;2.88;;;0.40;99.90;;;;;;5031048;28;20223;-60
2023/11/26 04:01:33;;;;;;;3.53;3.22;;;0.30;99.90;;;;;;5031186;28;20651;-61
2023/11/26 04:04:00;;;;;;;2.60;2.42;;;0.30;99.90;;;;;;5031118;28;20207;-60
2023/11/26 04:06:28;;;;;;;3.97;3.20;;;0.30;99.90;;;;;;5030624;28;20207;-61
2023/11/26 04:08:55;;;;;;;2.00;1.90;;;0.20;99.90;;;;;;5031118;28;20238;-61
2023/11/26 04:11:22;;;;;;;2.78;2.58;;;0.20;99.90;;;;;;5029890;28;20297;-60
2023/11/26 04:13:48;;;;;;;3.53;3.05;;;0.20;99.90;;;;;;5030835;28;20202;-61
2023/11/26 04:16:18;;;;;;;2.65;2.45;;;0.20;99.90;;;;;;5031150;28;20199;-61
2023/11/26 04:18:45;;;;;;;2.78;2.58;;;0.20;99.90;;;;;;5030792;28;20227;-60
2023/11/26 04:21:13;;;;;;;3.38;2.63;;;0.20;99.90;;;;;;5031091;28;20206;-59
2023/11/26 04:23:41;;;;;;;3.58;3.22;;;0.10;99.90;;;;;;5031000;28;20297;-61
2023/11/26 04:26:09;;;;;;;3.28;2.58;;;0.10;99.90;;;;;;5030729;28;20226;-60
2023/11/26 04:28:36;;;;;;;2.95;2.83;;;0.10;99.90;;;;;;5030511;28;20713;-60
2023/11/26 04:31:03;;;;;;;2.65;2.13;;;0.10;99.90;;;;;;5031074;28;20241;-61
2023/11/26 04:33:30;;;;;;;5.57;3.03;;;0.00;99.90;;;;;;5030823;28;20218;-59
2023/11/26 04:35:57;;;;;;;4.70;4.10;;;0.00;99.90;;;;;;5030820;28;20229;-61
2023/11/26 04:38:23;;;;;;;3.95;2.53;;;0.00;99.90;;;;;;5030574;28;20217;-61
2023/11/26 04:40:52;;;;;;;2.88;2.70;;;0.00;99.90;;;;;;5030645;28;20712;-61
2023/11/26 04:43:19;;;;;;;8.70;4.10;;;-0.10;99.90;;;;;;5030894;28;20215;-58
2023/11/26 04:45:46;;;;;;;3.28;2.80;;;-0.10;99.90;;;;;;5030689;28;20281;-59
2023/11/26 04:48:14;;;;;;;3.83;3.42;;;-0.10;99.90;;;;;;5030421;28;20211;-60
2023/11/26 04:50:41;;;;;;;3.70;3.40;;;-0.10;99.90;;;;;;5030810;28;20207;-60
2023/11/26 04:53:07;;;;;;;4.20;3.88;;;-0.10;99.90;;;;;;5030654;28;20203;-60
2023/11/26 04:55:34;;;;;;;3.58;3.20;;;-0.10;99.90;;;;;;5031008;28;20218;-61
2023/11/26 04:58:02;;;;;;;5.45;2.90;;;-0.20;99.90;;;;;;5034252;28;20211;-61
2023/11/26 05:00:29;;;;;;;5.13;4.30;;;-0.20;99.90;;;;;;5034298;28;20317;-61
2023/11/26 05:02:56;;;;;;;4.07;2.60;;;-0.20;99.90;;;;;;5034193;28;20681;-62
2023/11/26 05:05:23;;;;;;;6.55;3.90;;;-0.20;99.90;;;;;;5034522;28;20262;-60
2023/11/26 05:07:50;;;;;;;3.75;3.35;;;-0.20;99.90;;;;;;5033749;28;20207;-61
2023/11/26 05:10:17;;;;;;;3.33;2.78;;;-0.20;99.90;;;;;;5034188;28;20289;-60
2023/11/26 05:12:43;;;;;;;6.72;3.10;;;-0.20;99.90;;;;;;5033976;28;20210;-60
2023/11/26 05:15:12;;;;;;;4.90;2.60;;;-0.20;99.90;;;;;;5033944;28;20199;-61
2023/11/26 05:17:39;;;;;;;6.50;3.38;;;-0.20;99.90;;;;;;5033836;28;20243;-62
2023/11/26 05:20:13;;;;;;;5.97;4.38;;;-0.20;99.90;;;;;;5033895;28;20668;-61
2023/11/26 05:22:40;;;;;;;2.70;2.50;;;-0.20;99.90;;;;;;5033917;28;20612;-60
2023/11/26 05:25:08;;;;;;;4.53;3.22;;;-0.20;99.90;;;;;;5033948;28;20254;-61
2023/11/26 05:27:35;;;;;;;6.85;3.30;;;-0.20;99.90;;;;;;5033647;28;20301;-61
2023/11/26 05:30:03;;;;;;;5.15;2.92;;;-0.20;99.90;;;;;;5033672;28;20234;-61
2023/11/26 05:32:31;;;;;;;4.95;4.45;;;-0.20;99.90;;;;;;5033739;28;20296;-61
2023/11/26 05:34:58;;;;;;;6.60;2.95;;;-0.20;99.90;;;;;;5033542;28;20591;-61
2023/11/26 05:37:25;;;;;;;3.50;3.17;;;-0.20;99.90;;;;;;5033521;28;20301;-61
2023/11/26 05:39:52;;;;;;;10.32;4.75;;;-0.20;99.90;;;;;;5033638;28;20616;-60
2023/11/26 05:42:18;;;;;;;7.80;2.85;;;-0.20;99.90;;;;;;5033544;28;20217;-61
2023/11/26 05:44:45;;;;;;;3.17;2.60;;;-0.20;99.90;;;;;;5033273;28;20217;-60
2023/11/26 05:47:12;;;;;;;4.30;2.97;;;-0.20;99.90;;;;;;5033144;28;20207;-60
2023/11/26 05:49:41;;;;;;;4.63;4.22;;;-0.30;99.90;;;;;;5033340;28;20230;-61
2023/11/26 05:52:07;;;;;;;4.18;3.22;;;-0.30;99.90;;;;;;5033502;28;20238;-61
2023/11/26 05:54:34;;;;;;;3.72;2.65;;;-0.30;99.90;;;;;;5033122;28;20225;-59
2023/11/26 05:57:01;;;;;;;3.50;3.17;;;-0.30;99.90;;;;;;5033013;28;20207;-62
2023/11/26 05:59:28;;;;;;;5.68;4.03;;;-0.30;99.90;;;;;;5033206;28;20780;-59
2023/11/26 06:01:55;;;;;;;4.53;3.70;;;-0.30;99.90;;;;;;5033108;28;20580;-62
2023/11/26 06:04:22;;;;;;;4.28;3.95;;;-0.40;99.90;;;;;;5033238;28;20642;-61
2023/11/26 06:06:50;;;;;;;4.70;3.28;;;-0.30;99.90;;;;;;5032148;28;20227;-60
2023/11/26 06:09:17;;;;;;;2.85;2.65;;;-0.40;99.90;;;;;;5032454;28;20836;-61
2023/11/26 06:11:44;;;;;;;3.45;3.15;;;-0.30;99.90;;;;;;5032993;28;20301;-60
2023/11/26 06:14:12;;;;;;;4.43;3.10;;;-0.40;99.90;;;;;;5032845;28;20673;-60
2023/11/26 06:16:41;;;;;;;4.25;3.85;;;-0.40;99.90;;;;;;5032417;28;20295;-60
2023/11/26 06:19:08;;;;;;;3.85;3.55;;;-0.40;99.90;;;;;;5032933;28;20317;-60
2023/11/26 06:21:35;;;;;;;3.60;3.13;;;-0.40;99.90;;;;;;5032946;28;20307;-61
2023/11/26 06:24:04;;;;;;;5.50;4.50;;;-0.40;99.90;;;;;;5032892;28;20588;-61
2023/11/26 06:26:31;;;;;;;3.40;3.10;;;-0.40;99.90;;;;;;5060715;22;20316;-61
2023/11/26 06:28:59;;;;;;;5.65;3.40;;;-0.40;99.90;;;;;;5053964;28;20827;-59
2023/11/26 06:31:25;;;;;;;4.30;3.45;;;-0.40;99.90;;;;;;5053494;28;20209;-60
2023/11/26 06:33:52;;;;;;;3.78;2.55;;;-0.40;99.90;;;;;;5053617;28;20207;-57
2023/11/26 06:36:21;;;;;;;4.28;3.92;;;-0.50;99.90;;;;;;5053484;28;20253;-60
2023/11/26 06:38:48;;;;;;;3.70;3.40;;;-0.50;99.90;;;;;;5052056;28;20289;-57
2023/11/26 06:41:24;;;;;;;3.13;2.75;;;-0.50;99.90;;;;;;5049606;28;20298;-60
2023/11/26 06:43:52;;;;;;;6.93;3.45;;;-0.50;99.90;;;;;;5052267;28;20202;-61
2023/11/26 06:46:19;;;;;;;4.40;4.05;;;-0.50;99.90;;;;;;5051942;28;20257;-58
2023/11/26 06:48:46;;;;;;;3.50;3.20;;;-0.60;99.90;;;;;;5052220;28;20203;-59
2023/11/26 06:51:13;;;;;;;3.95;3.58;;;-0.60;99.90;;;;;;5052042;28;20695;-60
2023/11/26 06:53:40;;;;;;;5.72;5.20;;;-0.60;99.90;;;;;;5052716;28;20206;-60
2023/11/26 06:56:07;;;;;;;4.82;3.55;;;-0.60;99.90;;;;;;5052454;28;20236;-60
2023/11/26 06:58:38;;;;;;;4.18;3.63;;;-0.60;99.90;;;;;;5052716;28;20904;-60
2023/11/26 07:01:06;;;;;;;4.78;3.70;;;-0.60;99.90;;;;;;5052428;28;20732;-60
2023/11/26 07:03:33;;;;;;;5.25;4.78;;;-0.70;99.90;;;;;;5052520;28;20202;-59
2023/11/26 07:06:00;;;;;;;3.50;3.22;;;-0.70;99.90;;;;;;5052262;28;20226;-61
2023/11/26 07:08:27;;;;;;;5.38;3.85;;;-0.70;99.90;;;;;;5052419;28;20302;-59
2023/11/26 07:10:54;;;;;;;5.28;4.47;;;-0.70;99.90;;;;;;5052601;28;20680;-60
2023/11/26 07:13:21;;;;;;;8.18;4.50;;;-0.70;99.90;;;;;;5052743;28;20210;-58
2023/11/26 07:15:49;;;;;;;4.47;4.07;;;-0.70;99.90;;;;;;5052216;28;20226;-59
2023/11/26 07:18:16;;;;;;;5.10;4.35;;;-0.70;99.90;;;;;;5051995;28;20210;-60
2023/11/26 07:20:43;;;;;;;3.97;3.60;;;-0.70;99.90;;;;;;5052554;28;20310;-60
2023/11/26 07:23:11;;;;;;;6.90;4.40;;;-0.70;99.90;;;;;;5052402;28;20207;-58
2023/11/26 07:25:39;;;;;;;6.03;4.95;;;-0.70;99.90;;;;;;5052142;28;20291;-59
2023/11/26 07:28:07;;;;;;;4.60;4.13;;;-0.70;99.90;;;;;;5052081;28;20297;-60
2023/11/26 07:30:35;;;;;;;3.80;3.50;;;-0.70;99.90;;;;;;5052216;28;20586;-60
2023/11/26 07:33:03;;;;;;;5.10;4.38;;;-0.70;99.90;;;;;;5052227;28;20212;-61
2023/11/26 07:35:30;;;;;;;4.90;3.90;;;-0.70;99.90;;;;;;5052193;28;20219;-58
2023/11/26 07:37:57;;;;;;;4.32;3.97;;;-0.70;99.90;;;;;;5051872;28;20217;-60
2023/11/26 07:40:24;;;;;;;5.32;4.43;;;-0.70;99.90;;;;;;5051913;28;20301;-58
2023/11/26 07:42:51;;;;;;;6.57;4.03;;;-0.70;99.90;;;;;;5052289;28;20202;-60
2023/11/26 07:45:18;;;;;;;4.15;3.85;;;-0.70;99.90;;;;;;5052148;28;20719;-60
2023/11/26 07:47:45;;;;;;;4.80;4.18;;;-0.60;99.90;;;;;;5052014;28;20292;-60
2023/11/26 07:50:13;;;;;;;7.97;4.30;;;-0.60;99.90;;;;;;5052066;28;20241;-58
2023/11/26 07:52:40;;;;;;;5.55;3.92;;;-0.60;99.90;;;;;;5052091;28;20646;-61
2023/11/26 07:55:07;;;;;;;4.25;3.88;;;-0.60;99.90;;;;;;5052567;28;20232;-59
2023/11/26 07:57:36;;;;;;;5.10;4.55;;;-0.60;99.90;;;;;;5052167;28;20652;-60
2023/11/26 08:00:04;;;;;;;5.05;4.32;;;-0.60;99.90;;;;;;5052016;28;20210;-60
2023/11/26 08:02:31;;;;;;;4.13;3.72;;;-0.60;99.90;;;;;;5052149;28;20202;-60
2023/11/26 08:04:58;;;;;;;8.25;4.38;;;-0.50;99.90;;;;;;5051777;28;20210;-58
2023/11/26 08:07:29;;;;;;;5.88;4.85;;;-0.60;99.90;;;;;;5051405;28;20329;-58
2023/11/26 08:09:56;;;;;;;6.03;4.72;;;-0.50;99.90;;;;;;5051892;28;20207;-58
2023/11/26 08:12:24;;;;;;;5.78;4.97;;;-0.50;99.90;;;;;;5052030;28;20229;-60
2023/11/26 08:14:52;;;;;;;8.05;6.28;;;-0.50;99.90;;;;;;5051678;28;20708;-59
2023/11/26 08:17:19;;;;;;;7.75;5.55;;;-0.50;99.90;;;;;;5051328;28;20221;-58
2023/11/26 08:19:46;;;;;;;8.15;5.47;;;-0.50;99.90;;;;;;5052023;28;20210;-59
2023/11/26 08:22:13;;;;;;;5.35;4.85;;;-0.40;99.90;;;;;;5051968;28;20207;-60
2023/11/26 08:24:42;;;;;;;5.38;4.65;;;-0.40;99.90;;;;;;5052111;28;20216;-60
2023/11/26 08:27:09;;;;;;;7.88;5.60;;;-0.40;99.90;;;;;;5051487;28;20266;-60
2023/11/26 08:29:36;;;;;;;7.47;6.07;;;-0.40;99.90;;;;;;5051764;28;20198;-60
2023/11/26 08:32:04;;;;;;;7.63;6.10;;;-0.30;99.90;;;;;;5055124;28;20207;-58
2023/11/26 08:34:37;;;;;;;7.00;5.80;;;-0.30;99.90;;;;;;5056553;28;20585;-60
2023/11/26 08:37:06;;;;;;;6.97;5.45;;;-0.20;99.90;;;;;;5055856;28;20720;-59
2023/11/26 08:39:34;;;;;;;5.97;5.18;;;-0.10;99.90;;;;;;5056489;28;20221;-60
2023/11/26 08:42:05;;;;;;;7.90;6.93;;;0.10;99.90;;;;;;5055976;28;20306;-60
2023/11/26 08:44:32;;;;;;;7.80;7.00;;;0.30;99.90;;;;;;5055876;28;20585;-61
2023/11/26 08:46:59;;;;;;;9.32;8.38;;;0.40;99.90;;;;;;5055446;28;20708;-60
2023/11/26 08:49:25;;;;;;;14.52;8.70;;;0.60;99.90;;;;;;5055750;28;20214;-61
2023/11/26 08:51:52;;;;;;;10.20;8.65;;;0.80;99.90;;;;;;5055438;28;20241;-61
2023/11/26 08:54:20;;;;;;;9.00;7.20;;;0.90;99.90;;;;;;5055518;28;20726;-61
2023/11/26 08:56:46;;;;;;;10.50;8.57;;;1.00;99.90;;;;;;5054955;28;20226;-60
2023/11/26 08:59:15;;;;;;;8.52;7.60;;;1.20;99.90;;;;;;5055225;28;20210;-61
2023/11/26 09:01:41;;;;;;;8.45;7.00;;;1.30;99.90;;;;;;5055422;28;20224;-59
2023/11/26 09:04:08;;;;;;;9.32;7.68;;;1.40;99.90;;;;;;5055250;28;20314;-61
2023/11/26 09:06:35;;;;;;;10.07;8.00;;;1.50;99.90;;;;;;5054708;28;20236;-60
2023/11/26 09:09:02;;;;;;;10.57;9.48;;;1.70;99.90;;;;;;5054838;28;20206;-61
2023/11/26 09:11:30;;;;;;;13.20;11.77;;;1.80;99.90;;;;;;5055127;28;20207;-59
2023/11/26 09:13:58;;;;;;;11.70;10.50;;;1.90;99.90;;;;;;5055037;28;20210;-61
2023/11/26 09:16:26;;;;;;;13.95;12.52;;;2.10;99.90;;;;;;5054365;28;20730;-61
2023/11/26 09:18:53;;;;;;;12.35;10.80;;;2.30;99.90;;;;;;5054795;28;20238;-61
2023/11/26 09:21:22;;;;;;;11.93;10.70;;;2.40;99.90;;;;;;5054507;28;20202;-61
2023/11/26 09:23:51;;;;;;;12.70;10.48;;;2.60;99.90;;;;;;5054495;28;20740;-61
2023/11/26 09:26:18;;;;;;;13.00;10.98;;;2.70;99.90;;;;;;5053777;28;20233;-61
2023/11/26 09:28:45;;;;;;;12.10;10.68;;;2.80;99.90;;;;;;5054124;28;20210;-61
2023/11/26 09:31:12;;;;;;;12.88;11.52;;;2.90;99.90;;;;;;5054241;28;20221;-61
2023/11/26 09:33:40;;;;;;;13.57;12.15;;;3.00;99.90;;;;;;5054163;28;20210;-61
2023/11/26 09:36:08;;;;;;;11.60;8.45;;;3.20;99.90;;;;;;5053499;28;20233;-61
2023/11/26 09:38:38;;;;;;;9.93;7.20;;;3.30;99.90;;;;;;5053583;28;20213;-61
2023/11/26 09:41:05;;;;;;;9.98;9.07;;;3.40;99.90;;;;;;5053780;28;20206;-61
2023/11/26 09:43:32;;;;;;;9.00;6.20;;;3.50;99.90;;;;;;5053774;28;20211;-61
2023/11/26 09:46:00;;;;;;;7.35;6.70;;;3.60;99.90;;;;;;5053594;28;20237;-60
2023/11/26 09:48:27;;;;;;;6.97;6.38;;;3.70;99.90;;;;;;5052541;28;20676;-61
2023/11/26 09:50:55;;;;;;;16.33;8.02;;;3.80;99.90;;;;;;5053946;28;20590;-61
2023/11/26 09:53:23;;;;;;;7.35;6.65;;;3.90;99.90;;;;;;5051087;28;20744;-61
2023/11/26 09:55:51;;;;;;;8.90;5.75;;;3.90;99.90;;;;;;5053090;28;20268;-61
2023/11/26 09:58:18;;;;;;;9.05;8.30;;;4.00;99.90;;;;;;5052635;28;20206;-61
2023/11/26 10:00:45;;;;;;;7.00;6.00;;;3.90;99.90;;;;;;5050103;28;20293;-61
2023/11/26 10:03:12;;;;;;;9.52;7.70;;;4.00;99.90;;;;;;5052822;28;20199;-60
2023/11/26 10:05:39;;;;;;;10.40;7.18;;;4.10;99.90;;;;;;5053152;28;20226;-61
2023/11/26 10:08:26;;;;;;;10.10;6.70;;;4.10;99.90;;;;;;5054697;28;20226;-61
2023/11/26 10:10:52;;;;;;;8.10;6.97;;;4.10;99.90;;;;;;5050997;28;20289;-60
2023/11/26 10:13:19;;;;;;;9.93;7.80;;;4.20;99.90;;;;;;5056177;28;20202;-60
2023/11/26 10:15:46;;;;;;;8.18;6.07;;;4.40;99.90;;;;;;5053069;28;20652;-61
2023/11/26 10:18:16;;;;;;;11.75;8.32;;;4.40;99.90;;;;;;5052561;28;20286;-60
2023/11/26 10:20:45;;;;;;;8.80;7.50;;;4.50;99.90;;;;;;5053275;28;20252;-61
2023/11/26 10:23:13;;;;;;;8.57;7.75;;;4.60;99.90;;;;;;5052824;28;20205;-61
2023/11/26 10:25:43;;;;;;;7.32;6.63;;;4.70;99.90;;;;;;5052290;28;20612;-60
2023/11/26 10:28:14;;;;;;;9.55;6.90;;;4.80;99.90;;;;;;5052586;28;20222;-60
2023/11/26 10:30:41;;;;;;;8.40;6.38;;;4.70;99.90;;;;;;5052032;28;20206;-60
2023/11/26 10:33:09;;;;;;;9.68;6.63;;;4.80;99.90;;;;;;5053002;28;20202;-60
2023/11/26 10:35:46;;;;;;;7.88;6.10;;;4.80;99.90;;;;;;5053616;28;20252;-59
2023/11/26 10:38:14;;;;;;;7.45;5.97;;;4.80;99.90;;;;;;5048822;28;20208;-60
2023/11/26 10:40:42;;;;;;;8.13;6.35;;;4.80;99.90;;;;;;5053910;28;20241;-60
2023/11/26 10:43:10;;;;;;;6.25;5.65;;;4.80;99.90;;;;;;5052440;28;20210;-60
2023/11/26 10:45:38;;;;;;;13.20;6.57;;;4.80;99.90;;;;;;5051103;28;20317;-58
2023/11/26 10:48:09;;;;;;;11.32;6.65;;;4.90;99.90;;;;;;5052487;28;20226;-58
2023/11/26 10:50:41;;;;;;;8.50;5.95;;;4.90;99.90;;;;;;5054437;28;20202;-60
2023/11/26 10:53:29;;;;;;;7.40;6.70;;;5.00;99.90;;;;;;5052537;28;20206;-61
2023/11/26 10:56:00;;;;;;;9.52;6.60;;;5.10;99.90;;;;;;5044582;28;21034;-58
2023/11/26 10:58:33;;;;;;;12.70;7.25;;;5.20;99.90;;;;;;5051828;28;20293;-61
2023/11/26 11:01:00;;;;;;;6.55;5.82;;;5.30;99.90;;;;;;5052414;28;20585;-59
2023/11/26 11:03:28;;;;;;;8.40;6.18;;;5.40;99.90;;;;;;5051657;28;20298;-61
2023/11/26 11:05:56;;;;;;;7.50;6.72;;;5.50;99.90;;;;;;5054938;28;20777;-60
2023/11/26 11:08:25;;;;;;;6.95;6.15;;;5.50;99.90;;;;;;5051239;28;20225;-60
2023/11/26 11:11:03;;;;;;;10.40;6.88;;;5.60;99.90;;;;;;5051476;28;20202;-60
2023/11/26 11:13:30;;;;;;;8.50;6.57;;;5.60;99.90;;;;;;5051291;28;20206;-61
2023/11/26 11:15:58;;;;;;;9.63;6.93;;;5.70;99.90;;;;;;5051133;28;20650;-61
2023/11/26 11:18:45;;;;;;;5.65;4.80;;;5.70;99.90;;;;;;5050557;28;20203;-61
2023/11/26 11:21:13;;;;;;;5.97;5.40;;;5.70;99.90;;;;;;5050445;28;20669;-61
2023/11/26 11:23:42;;;;;;;8.90;5.75;;;5.80;99.90;;;;;;5051061;28;20666;-61
2023/11/26 11:26:11;;;;;;;6.38;5.70;;;5.80;99.90;;;;;;5050793;28;20337;-61
2023/11/26 11:28:38;;;;;;;8.73;5.35;;;5.80;99.90;;;;;;5048840;28;20223;-62
2023/11/26 11:31:06;;;;;;;8.07;5.95;;;5.80;99.90;;;;;;5050110;28;20198;-61
2023/11/26 11:33:32;;;;;;;8.57;5.85;;;5.90;99.90;;;;;;5050532;28;20213;-61
2023/11/26 11:36:03;;;;;;;6.47;5.15;;;6.10;99.90;;;;;;5050167;28;20823;-61
2023/11/26 11:38:31;;;;;;;10.73;5.25;;;6.20;99.90;;;;;;5050967;28;20205;-60
2023/11/26 11:41:09;;;;;;;5.65;5.10;;;6.20;99.90;;;;;;5052582;28;20215;-60
2023/11/26 11:43:38;;;;;;;7.43;6.00;;;6.30;99.90;;;;;;5049720;28;20293;-62
2023/11/26 11:46:42;;;;;;;8.52;5.95;;;6.40;99.90;;;;;;5053512;28;20253;-61
2023/11/26 11:49:09;;;;;;;6.95;5.70;;;6.40;99.90;;;;;;5050130;28;20208;-61
2023/11/26 11:51:38;;;;;;;11.13;7.03;;;6.30;99.90;;;;;;5049801;28;20206;-62
2023/11/26 11:54:56;;;;;;;6.38;5.03;;;6.30;99.90;;;;;;5048790;28;20198;-61
2023/11/26 11:57:25;;;;;;;5.22;4.70;;;6.30;99.90;;;;;;4984898;28;20742;-61
2023/11/26 11:59:55;;;;;;;5.93;5.43;;;6.30;99.90;;;;;;4988181;28;20204;-61
2023/11/26 12:02:23;;;;;;;4.10;3.80;;;6.30;99.90;;;;;;4992509;28;20670;-60
2023/11/26 12:04:51;;;;;;;5.85;4.30;;;6.30;99.90;;;;;;4988485;28;20204;-60
2023/11/26 12:07:20;;;;;;;6.82;5.93;;;6.30;99.90;;;;;;4987596;28;20224;-61
2023/11/26 12:09:48;;;;;;;5.80;4.80;;;6.30;99.90;;;;;;4992199;28;20208;-61
2023/11/26 12:12:19;;;;;;;9.38;4.85;;;6.30;99.90;;;;;;4991778;28;20202;-62
2023/11/26 12:14:46;;;;;;;7.32;5.03;;;6.30;99.90;;;;;;4992049;28;20204;-62
2023/11/26 12:17:16;;;;;;;7.80;5.15;;;6.30;99.90;;;;;;4991987;28;20286;-60
2023/11/26 12:19:44;;;;;;;9.30;5.78;;;6.30;99.90;;;;;;4992378;28;20231;-61
2023/11/26 12:22:12;;;;;;;4.72;4.25;;;6.30;99.90;;;;;;4992382;28;20214;-61
2023/11/26 12:24:40;;;;;;;4.65;4.22;;;6.30;99.90;;;;;;4992431;28;20296;-61
2023/11/26 12:27:08;;;;;;;7.55;4.20;;;6.30;99.90;;;;;;4991584;28;20699;-61
2023/11/26 12:29:36;;;;;;;5.95;5.43;;;6.30;99.90;;;;;;5053328;28;20205;-61
2023/11/26 12:32:08;;;;;;;8.55;5.93;;;6.30;99.90;;;;;;5053507;28;20807;-60
2023/11/26 12:34:39;;;;;;;6.30;4.85;;;6.40;99.90;;;;;;5054246;28;20202;-61
2023/11/26 12:37:09;;;;;;;6.90;4.18;;;6.40;99.90;;;;;;5053713;28;20257;-61
2023/11/26 12:39:38;;;;;;;5.10;3.67;;;6.40;99.90;;;;;;5053878;28;20202;-61
2023/11/26 12:42:05;;;;;;;4.20;3.65;;;6.50;99.90;;;;;;5053830;28;20771;-61
2023/11/26 12:44:33;;;;;;;4.15;3.75;;;6.50;99.90;;;;;;5053853;28;20648;-60
2023/11/26 12:47:09;;;;;;;6.53;4.82;;;6.50;99.90;;;;;;5052806;28;20237;-61
2023/11/26 12:49:37;;;;;;;4.80;4.40;;;6.50;99.90;;;;;;5053288;28;20206;-61
2023/11/26 12:52:05;;;;;;;6.22;5.25;;;6.40;99.90;;;;;;5053771;28;20221;-61
2023/11/26 12:54:32;;;;;;;6.63;4.53;;;6.40;99.90;;;;;;5053573;28;20210;-60
2023/11/26 12:56:59;;;;;;;4.40;4.10;;;6.40;99.90;;;;;;5053559;28;20317;-61
2023/11/26 12:59:26;;;;;;;6.20;5.60;;;6.50;99.90;;;;;;5053739;28;20669;-59
2023/11/26 13:01:53;;;;;;;6.25;5.40;;;6.60;99.90;;;;;;5053744;28;20215;-60